Terminal Aerodrome Forecast
Issued by NWS Sterling, VA

Current Version | Previous Version | Graphics & Text | Print | Product List | Glossary On
Versions: 1 2 3 4 5 6 7 8 9 10 11 12 13 14 15 16 17 18 19 20 21 22 23 24
000
FTUS41 KLWX 170831 AAA
TAFDCA
TAF AMD
KDCA 170831Z 1709/1806 27007KT P6SM BKN050
     FM171000 31008KT P6SM FEW250
     FM172000 29006KT P6SM FEW200
     FM172300 23004KT P6SM SCT150=

USA.gov is the U.S. government's official web portal to all federal, state and local government web resources and services.